createdAt,value
2018-12-24T00:00:03.870Z,93
2018-12-24T00:01:03.512Z,93
2018-12-24T00:02:03.678Z,93
2018-12-24T00:03:03.127Z,93
2018-12-24T00:04:03.878Z,93
2018-12-24T00:05:03.656Z,93
2018-12-24T00:06:03.528Z,93
2018-12-24T00:07:03.038Z,93
2018-12-24T00:08:03.869Z,93
2018-12-24T00:09:03.336Z,93
2018-12-24T00:10:03.663Z,93
2018-12-24T00:11:04.050Z,93
2018-12-24T00:12:07.644Z,93
2018-12-24T00:13:03.624Z,93
2018-12-24T00:14:03.066Z,93
2018-12-24T00:15:03.639Z,93
2018-12-24T00:16:03.073Z,93
2018-12-24T00:17:03.551Z,93
2018-12-24T00:18:03.183Z,93
2018-12-24T00:19:03.658Z,93
2018-12-24T00:20:03.130Z,93
2018-12-24T00:21:04.092Z,93
2018-12-24T00:22:03.974Z,93
2018-12-24T00:23:03.625Z,93
2018-12-24T00:24:03.492Z,93
2018-12-24T00:25:02.997Z,93
2018-12-24T00:26:03.463Z,93
2018-12-24T00:27:02.792Z,93
2018-12-24T00:28:03.299Z,93
2018-12-24T00:29:03.669Z,93
2018-12-24T00:30:02.894Z,93
2018-12-24T00:31:03.664Z,93
2018-12-24T00:32:03.734Z,93
2018-12-24T00:33:03.475Z,93
2018-12-24T00:34:03.829Z,93
2018-12-24T00:35:03.136Z,93
2018-12-24T00:36:03.490Z,93
2018-12-24T00:37:03.068Z,93
2018-12-24T00:38:03.148Z,93
2018-12-24T00:39:03.290Z,93
2018-12-24T00:40:03.272Z,93
2018-12-24T00:41:03.552Z,93
2018-12-24T00:42:03.400Z,93
2018-12-24T00:43:03.338Z,93
2018-12-24T00:44:03.419Z,93
2018-12-24T00:45:02.902Z,93
2018-12-24T00:46:03.511Z,93
2018-12-24T00:47:03.818Z,93
2018-12-24T00:48:03.540Z,93
2018-12-24T00:49:03.262Z,93
2018-12-24T00:50:03.615Z,93
2018-12-24T00:51:03.817Z,93
2018-12-24T00:52:03.434Z,93
2018-12-24T00:53:03.777Z,93
2018-12-24T00:54:03.404Z,93
2018-12-24T00:55:03.663Z,93
2018-12-24T00:56:03.503Z,93
2018-12-24T00:57:02.977Z,93
2018-12-24T00:58:06.432Z,93
2018-12-24T00:59:03.696Z,93
2018-12-24T01:00:03.149Z,93
2018-12-24T01:01:03.271Z,93
2018-12-24T01:02:03.111Z,93
2018-12-24T01:03:03.278Z,93
2018-12-24T01:04:02.761Z,93
2018-12-24T01:05:03.278Z,93
2018-12-24T01:06:03.482Z,93
2018-12-24T01:07:03.238Z,93
2018-12-24T01:08:03.728Z,93
2018-12-24T01:09:03.032Z,93
2018-12-24T01:10:03.309Z,93
2018-12-24T01:11:03.661Z,93
2018-12-24T01:12:03.111Z,93
2018-12-24T01:13:03.084Z,93
2018-12-24T01:14:03.158Z,93
2018-12-24T01:15:03.829Z,93
2018-12-24T01:16:03.132Z,93
2018-12-24T01:17:03.848Z,93
2018-12-24T01:18:03.088Z,93
2018-12-24T01:19:03.614Z,93
2018-12-24T01:20:03.177Z,93
2018-12-24T01:21:02.858Z,93
2018-12-24T01:22:03.471Z,93
2018-12-24T01:23:03.766Z,93
2018-12-24T01:24:03.348Z,93
2018-12-24T01:25:03.134Z,93
2018-12-24T01:26:03.176Z,93
2018-12-24T01:27:02.746Z,93
2018-12-24T01:28:03.377Z,93
2018-12-24T01:29:03.797Z,93
2018-12-24T01:30:03.471Z,93
2018-12-24T01:31:03.293Z,93
2018-12-24T01:32:03.400Z,93
2018-12-24T01:33:03.777Z,93
2018-12-24T01:34:03.481Z,93
2018-12-24T01:35:03.840Z,93
2018-12-24T01:36:03.333Z,93
2018-12-24T01:37:03.780Z,93
2018-12-24T01:38:03.631Z,93
2018-12-24T01:39:03.563Z,93
2018-12-24T01:40:03.514Z,93
2018-12-24T01:41:03.767Z,93
2018-12-24T01:42:02.783Z,93
2018-12-24T01:43:03.064Z,93
2018-12-24T01:44:03.664Z,93
2018-12-24T01:45:03.259Z,93
2018-12-24T01:46:02.856Z,93
2018-12-24T01:47:03.885Z,93
2018-12-24T01:48:03.501Z,93
2018-12-24T01:49:03.059Z,93
2018-12-24T01:50:03.923Z,93
2018-12-24T01:51:03.147Z,93
2018-12-24T01:52:03.123Z,93
2018-12-24T01:53:03.058Z,93
2018-12-24T01:54:03.043Z,93
2018-12-24T01:55:03.807Z,93
2018-12-24T01:56:03.199Z,93
2018-12-24T01:57:03.761Z,93
2018-12-24T01:58:02.975Z,93
2018-12-24T01:59:03.516Z,93
2018-12-24T02:00:03.497Z,93
2018-12-24T02:01:03.639Z,93
2018-12-24T02:02:03.140Z,93
2018-12-24T02:03:03.342Z,93
2018-12-24T02:04:03.776Z,93
2018-12-24T02:05:03.617Z,93
2018-12-24T02:06:03.024Z,93
2018-12-24T02:07:03.784Z,93
2018-12-24T02:08:03.180Z,93
2018-12-24T02:09:03.606Z,93
2018-12-24T02:10:03.323Z,93
2018-12-24T02:11:03.601Z,93
2018-12-24T02:12:03.558Z,93
2018-12-24T02:13:03.216Z,93
2018-12-24T02:14:03.688Z,93
2018-12-24T02:15:03.066Z,93
2018-12-24T02:16:03.653Z,93
2018-12-24T02:17:03.333Z,93
2018-12-24T02:18:03.581Z,93
2018-12-24T02:19:03.325Z,93
2018-12-24T02:20:03.649Z,93
2018-12-24T02:21:02.949Z,93
2018-12-24T02:22:13.270Z,93
2018-12-24T02:23:03.259Z,93
2018-12-24T02:24:03.655Z,93
2018-12-24T02:25:03.211Z,93
2018-12-24T02:26:09.046Z,93
2018-12-24T02:27:03.520Z,93
2018-12-24T02:28:03.548Z,93
2018-12-24T02:29:03.544Z,93
2018-12-24T02:30:02.961Z,93
2018-12-24T02:31:03.374Z,93
2018-12-24T02:32:03.798Z,93
2018-12-24T02:33:03.065Z,93
2018-12-24T02:34:03.331Z,93
2018-12-24T02:35:02.981Z,93
2018-12-24T02:36:03.391Z,93
2018-12-24T02:37:02.812Z,93
2018-12-24T02:38:03.037Z,93
2018-12-24T02:39:03.657Z,93
2018-12-24T02:40:03.209Z,93
2018-12-24T02:41:03.313Z,93
2018-12-24T02:42:02.904Z,93
2018-12-24T02:43:03.751Z,93
2018-12-24T02:44:03.014Z,93
2018-12-24T02:45:03.612Z,93
2018-12-24T02:46:03.061Z,93
2018-12-24T02:47:03.131Z,93
2018-12-24T02:48:02.848Z,93
2018-12-24T02:49:03.237Z,93
2018-12-24T02:50:03.549Z,93
2018-12-24T02:51:03.576Z,93
2018-12-24T02:52:03.323Z,93
2018-12-24T02:53:03.438Z,93
2018-12-24T02:54:03.255Z,93
2018-12-24T02:55:03.671Z,93
2018-12-24T02:56:03.154Z,92
2018-12-24T02:57:03.837Z,91
2018-12-24T02:58:03.063Z,91
2018-12-24T02:59:03.278Z,91
2018-12-24T03:00:03.051Z,91
2018-12-24T03:01:04.124Z,91
2018-12-24T03:02:03.265Z,92
2018-12-24T03:03:03.696Z,92
2018-12-24T03:04:03.432Z,91
2018-12-24T03:05:03.789Z,92
2018-12-24T03:06:03.396Z,92
2018-12-24T03:07:02.950Z,92
2018-12-24T03:08:03.022Z,92
2018-12-24T03:09:03.795Z,92
2018-12-24T03:10:02.991Z,92
2018-12-24T03:11:03.715Z,92
2018-12-24T03:12:03.209Z,92
2018-12-24T03:13:03.524Z,92
2018-12-24T03:14:03.113Z,92
2018-12-24T03:15:03.921Z,92
2018-12-24T03:16:03.489Z,92
2018-12-24T03:17:03.100Z,93
2018-12-24T03:18:02.857Z,93
2018-12-24T03:19:06.563Z,93
2018-12-24T03:20:03.489Z,93
2018-12-24T03:21:03.100Z,93
2018-12-24T03:22:03.435Z,93
2018-12-24T03:23:03.680Z,93
2018-12-24T03:24:03.254Z,93
2018-12-24T03:25:03.810Z,93
2018-12-24T03:26:03.278Z,93
2018-12-24T03:27:03.349Z,93
2018-12-24T03:28:03.118Z,93
2018-12-24T03:29:03.475Z,93
2018-12-24T03:30:02.994Z,93
2018-12-24T03:31:03.660Z,93
2018-12-24T03:32:03.074Z,92
2018-12-24T03:33:03.055Z,92
2018-12-24T03:34:02.931Z,92
2018-12-24T03:35:03.378Z,92
2018-12-24T03:36:03.209Z,92
2018-12-24T03:37:04.088Z,92
2018-12-24T03:38:03.332Z,92
2018-12-24T03:39:03.242Z,92
2018-12-24T03:40:03.057Z,92
2018-12-24T03:41:02.789Z,92
2018-12-24T03:42:03.186Z,92
2018-12-24T03:43:13.376Z,92
2018-12-24T03:44:02.893Z,92
2018-12-24T03:45:03.817Z,92
2018-12-24T03:46:03.945Z,93
2018-12-24T03:47:03.024Z,93
2018-12-24T03:48:03.437Z,93
2018-12-24T03:49:03.317Z,93
2018-12-24T03:50:03.638Z,93
2018-12-24T03:51:02.987Z,93
2018-12-24T03:52:02.908Z,93
2018-12-24T03:53:03.539Z,93
2018-12-24T03:54:03.777Z,93
2018-12-24T03:55:03.922Z,93
2018-12-24T03:56:03.493Z,93
2018-12-24T03:57:03.729Z,93
2018-12-24T03:58:03.286Z,93
2018-12-24T03:59:03.096Z,93
2018-12-24T04:00:02.862Z,93
2018-12-24T04:01:02.908Z,93
2018-12-24T04:02:03.568Z,93
2018-12-24T04:03:03.422Z,93
2018-12-24T04:04:03.415Z,93
2018-12-24T04:05:03.530Z,93
2018-12-24T04:06:03.368Z,93
2018-12-24T04:07:03.139Z,93
2018-12-24T04:08:03.132Z,93
2018-12-24T04:09:03.330Z,93
2018-12-24T04:10:03.328Z,93
2018-12-24T04:11:03.769Z,93
2018-12-24T04:12:02.900Z,93
2018-12-24T04:13:03.447Z,93
2018-12-24T04:14:03.563Z,93
2018-12-24T04:15:03.255Z,93
2018-12-24T04:16:02.897Z,93
2018-12-24T04:17:03.707Z,93
2018-12-24T04:18:03.712Z,93
2018-12-24T04:19:03.738Z,93
2018-12-24T04:20:03.133Z,93
2018-12-24T04:21:03.257Z,93
2018-12-24T04:22:03.126Z,93
2018-12-24T04:23:03.836Z,93
2018-12-24T04:24:03.526Z,93
2018-12-24T04:25:03.323Z,93
2018-12-24T04:26:03.862Z,93
2018-12-24T04:27:02.877Z,93
2018-12-24T04:28:03.215Z,94
2018-12-24T04:29:03.777Z,93
2018-12-24T04:30:03.077Z,94
2018-12-24T04:31:02.903Z,93
2018-12-24T04:32:03.629Z,93
2018-12-24T04:33:03.455Z,94
2018-12-24T04:34:03.269Z,94
2018-12-24T04:35:02.924Z,94
2018-12-24T04:36:03.786Z,94
2018-12-24T04:37:02.832Z,93
2018-12-24T04:38:03.567Z,94
2018-12-24T04:39:03.310Z,94
2018-12-24T04:40:03.541Z,94
2018-12-24T04:41:03.088Z,94
2018-12-24T04:42:03.594Z,94
2018-12-24T04:43:03.003Z,94
2018-12-24T04:44:03.298Z,93
2018-12-24T04:45:03.810Z,94
2018-12-24T04:46:03.311Z,94
2018-12-24T04:47:03.716Z,94
2018-12-24T04:48:02.866Z,94
2018-12-24T04:49:03.196Z,94
2018-12-24T04:50:03.365Z,94
2018-12-24T04:51:03.651Z,94
2018-12-24T04:52:03.522Z,94
2018-12-24T04:53:03.671Z,94
2018-12-24T04:54:03.242Z,94
2018-12-24T04:55:03.651Z,94
2018-12-24T04:56:03.306Z,94
2018-12-24T04:57:03.278Z,94
2018-12-24T04:58:02.995Z,94
2018-12-24T04:59:03.453Z,94
2018-12-24T05:00:03.028Z,94
2018-12-24T05:01:02.840Z,94
2018-12-24T05:02:03.711Z,94
2018-12-24T05:03:03.663Z,94
2018-12-24T05:04:03.172Z,94
2018-12-24T05:05:04.060Z,94
2018-12-24T05:06:03.438Z,94
2018-12-24T05:07:03.466Z,94
2018-12-24T05:08:03.518Z,94
2018-12-24T05:09:02.823Z,94
2018-12-24T05:10:03.530Z,94
2018-12-24T05:11:02.893Z,94
2018-12-24T05:12:03.336Z,94
2018-12-24T05:13:02.918Z,94
2018-12-24T05:14:03.441Z,94
2018-12-24T05:15:03.066Z,94
2018-12-24T05:16:03.564Z,94
2018-12-24T05:17:03.470Z,94
2018-12-24T05:18:02.986Z,94
2018-12-24T05:19:03.262Z,94
2018-12-24T05:20:03.280Z,94
2018-12-24T05:21:03.415Z,94
2018-12-24T05:22:03.197Z,94
2018-12-24T05:23:03.472Z,94
2018-12-24T05:24:03.450Z,94
2018-12-24T05:25:03.555Z,94
2018-12-24T05:26:03.441Z,94
2018-12-24T05:27:03.472Z,93
2018-12-24T05:28:03.200Z,93
2018-12-24T05:29:03.190Z,93
2018-12-24T05:30:03.554Z,93
2018-12-24T05:31:03.563Z,93
2018-12-24T05:32:03.659Z,93
2018-12-24T05:33:03.594Z,93
2018-12-24T05:34:03.329Z,93
2018-12-24T05:35:03.814Z,93
2018-12-24T05:36:03.788Z,93
2018-12-24T05:37:03.637Z,93
2018-12-24T05:38:02.962Z,93
2018-12-24T05:39:03.483Z,93
2018-12-24T05:40:03.034Z,93
2018-12-24T05:41:02.830Z,93
2018-12-24T05:42:04.014Z,93
2018-12-24T05:43:03.648Z,93
2018-12-24T05:44:03.163Z,93
2018-12-24T05:45:03.639Z,93
2018-12-24T05:46:03.581Z,93
2018-12-24T05:47:03.644Z,93
2018-12-24T05:48:03.746Z,93
2018-12-24T05:49:03.422Z,93
2018-12-24T05:50:03.176Z,93
2018-12-24T05:51:02.792Z,93
2018-12-24T05:52:02.942Z,93
2018-12-24T05:53:08.353Z,93
2018-12-24T05:54:03.738Z,93
2018-12-24T05:55:03.168Z,93
2018-12-24T05:56:03.043Z,93
2018-12-24T05:57:03.027Z,93
2018-12-24T05:58:03.836Z,93
2018-12-24T05:59:03.122Z,93
2018-12-24T06:00:03.311Z,93
2018-12-24T06:01:02.735Z,93
2018-12-24T06:02:03.016Z,93
2018-12-24T06:03:03.667Z,93
2018-12-24T06:04:03.269Z,93
2018-12-24T06:05:02.881Z,93
2018-12-24T06:06:03.112Z,93
2018-12-24T06:07:03.225Z,93
2018-12-24T06:08:03.014Z,93
2018-12-24T06:09:03.537Z,93
2018-12-24T06:10:02.935Z,93
2018-12-24T06:11:03.625Z,93
2018-12-24T06:12:02.843Z,93
2018-12-24T06:13:02.808Z,93
2018-12-24T06:14:03.311Z,93
2018-12-24T06:15:02.985Z,93
2018-12-24T06:16:03.308Z,93
2018-12-24T06:17:02.932Z,93
2018-12-24T06:18:02.739Z,93
2018-12-24T06:19:02.766Z,93
2018-12-24T06:20:03.750Z,93
2018-12-24T06:21:03.640Z,93
2018-12-24T06:22:03.486Z,93
2018-12-24T06:23:03.345Z,93
2018-12-24T06:24:03.642Z,93
2018-12-24T06:25:03.899Z,93
2018-12-24T06:26:03.027Z,93
2018-12-24T06:27:03.012Z,93
2018-12-24T06:28:03.061Z,93
2018-12-24T06:29:03.728Z,93
2018-12-24T06:30:03.319Z,93
2018-12-24T06:31:02.942Z,92
2018-12-24T06:32:02.842Z,93
2018-12-24T06:33:03.575Z,92
2018-12-24T06:34:03.367Z,92
2018-12-24T06:35:02.843Z,93
2018-12-24T06:36:03.559Z,93
2018-12-24T06:37:03.383Z,92
2018-12-24T06:38:02.728Z,92
2018-12-24T06:39:03.363Z,92
2018-12-24T06:40:03.195Z,92
2018-12-24T06:41:03.898Z,92
2018-12-24T06:42:03.502Z,92
2018-12-24T06:43:03.005Z,92
2018-12-24T06:44:07.264Z,92
2018-12-24T06:45:03.080Z,92
2018-12-24T06:46:03.632Z,92
2018-12-24T06:47:03.181Z,92
2018-12-24T06:48:03.440Z,92
2018-12-24T06:49:02.789Z,92
2018-12-24T06:50:03.269Z,92
2018-12-24T06:51:03.907Z,92
2018-12-24T06:52:03.404Z,92
2018-12-24T06:53:02.947Z,92
2018-12-24T06:54:03.690Z,92
2018-12-24T06:55:03.499Z,92
2018-12-24T06:56:03.704Z,92
2018-12-24T06:57:03.810Z,92
2018-12-24T06:58:03.346Z,92
2018-12-24T06:59:05.557Z,92
2018-12-24T07:00:03.912Z,92
2018-12-24T07:01:03.360Z,92
2018-12-24T07:02:03.535Z,92
2018-12-24T07:03:03.394Z,92
2018-12-24T07:04:03.267Z,92
2018-12-24T07:05:03.188Z,92
2018-12-24T07:06:03.024Z,92
2018-12-24T07:07:03.083Z,92
2018-12-24T07:08:02.868Z,92
2018-12-24T07:09:03.523Z,92
2018-12-24T07:10:03.090Z,92
2018-12-24T07:11:03.742Z,92
2018-12-24T07:12:02.891Z,92
2018-12-24T07:13:03.511Z,92
2018-12-24T07:14:03.671Z,92
2018-12-24T07:15:03.026Z,92
2018-12-24T07:16:03.169Z,92
2018-12-24T07:17:03.478Z,92
2018-12-24T07:18:03.173Z,92
2018-12-24T07:19:02.891Z,92
2018-12-24T07:20:03.628Z,92
2018-12-24T07:21:03.428Z,92
2018-12-24T07:22:03.302Z,92
2018-12-24T07:23:03.248Z,92
2018-12-24T07:24:03.262Z,92
2018-12-24T07:25:03.862Z,92
2018-12-24T07:26:03.149Z,92
2018-12-24T07:27:03.417Z,92
2018-12-24T07:28:03.676Z,92
2018-12-24T07:29:03.476Z,92
2018-12-24T07:30:03.001Z,92
2018-12-24T07:31:03.315Z,92
2018-12-24T07:32:03.139Z,92
2018-12-24T07:33:03.049Z,92
2018-12-24T07:34:03.120Z,92
2018-12-24T07:35:03.138Z,92
2018-12-24T07:36:03.696Z,92
2018-12-24T07:37:03.380Z,92
2018-12-24T07:38:03.512Z,92
2018-12-24T07:39:03.197Z,92
2018-12-24T07:40:03.444Z,92
2018-12-24T07:41:03.084Z,92
2018-12-24T07:42:02.895Z,92
2018-12-24T07:43:03.541Z,92
2018-12-24T07:44:02.890Z,92
2018-12-24T07:45:03.159Z,92
2018-12-24T07:46:03.499Z,92
2018-12-24T07:47:03.210Z,92
2018-12-24T07:48:03.598Z,92
2018-12-24T07:49:02.927Z,92
2018-12-24T07:50:03.348Z,92
2018-12-24T07:51:03.072Z,92
2018-12-24T07:52:03.869Z,92
2018-12-24T07:53:03.191Z,92
2018-12-24T07:54:03.491Z,92
2018-12-24T07:55:03.594Z,92
2018-12-24T07:56:03.150Z,92
2018-12-24T07:57:02.843Z,92
2018-12-24T07:58:03.562Z,92
2018-12-24T07:59:03.014Z,92
2018-12-24T08:00:03.654Z,92
2018-12-24T08:01:03.039Z,92
2018-12-24T08:02:03.260Z,92
2018-12-24T08:03:03.776Z,92
2018-12-24T08:04:03.344Z,92
2018-12-24T08:05:03.673Z,92
2018-12-24T08:06:03.052Z,92
2018-12-24T08:07:03.642Z,92
2018-12-24T08:08:03.855Z,92
2018-12-24T08:09:03.092Z,92
2018-12-24T08:10:03.489Z,92
2018-12-24T08:11:03.682Z,92
2018-12-24T08:12:03.529Z,92
2018-12-24T08:13:03.275Z,92
2018-12-24T08:14:03.016Z,92
2018-12-24T08:15:03.137Z,92
2018-12-24T08:16:03.005Z,92
2018-12-24T08:17:03.298Z,92
2018-12-24T08:18:03.427Z,92
2018-12-24T08:19:03.040Z,92
2018-12-24T08:20:03.939Z,92
2018-12-24T08:21:04.139Z,92
2018-12-24T08:22:03.344Z,92
2018-12-24T08:23:02.819Z,92
2018-12-24T08:24:03.584Z,92
2018-12-24T08:25:03.674Z,92
2018-12-24T08:26:02.851Z,92
2018-12-24T08:27:02.899Z,92
2018-12-24T08:28:02.976Z,92
2018-12-24T08:29:03.389Z,92
2018-12-24T08:30:04.719Z,92
2018-12-24T08:31:05.857Z,92
2018-12-24T08:32:04.586Z,92
2018-12-24T08:33:03.012Z,92
2018-12-24T08:34:03.508Z,92
2018-12-24T08:35:03.077Z,92
2018-12-24T08:36:03.068Z,92
2018-12-24T08:37:03.609Z,92
2018-12-24T08:38:02.944Z,92
2018-12-24T08:39:03.242Z,92
2018-12-24T08:40:04.726Z,92
2018-12-24T08:41:03.660Z,92
2018-12-24T08:42:05.530Z,92
2018-12-24T08:43:03.790Z,92
2018-12-24T08:44:03.567Z,92
2018-12-24T08:45:03.917Z,92
2018-12-24T08:46:03.772Z,92
2018-12-24T08:47:02.743Z,92
2018-12-24T08:48:03.206Z,92
2018-12-24T08:49:03.171Z,92
2018-12-24T08:50:04.589Z,92
2018-12-24T08:51:03.311Z,92
2018-12-24T08:52:03.387Z,92
2018-12-24T08:53:03.615Z,92
2018-12-24T08:54:03.343Z,92
2018-12-24T08:55:03.044Z,92
2018-12-24T08:56:03.422Z,92
2018-12-24T08:57:03.157Z,91
2018-12-24T08:58:03.547Z,91
2018-12-24T08:59:03.329Z,91
2018-12-24T09:00:05.514Z,91
2018-12-24T09:01:03.447Z,91
2018-12-24T09:02:03.709Z,91
2018-12-24T09:03:02.950Z,91
2018-12-24T09:04:02.864Z,91
2018-12-24T09:05:03.951Z,91
2018-12-24T09:06:03.211Z,91
2018-12-24T09:07:03.472Z,91
2018-12-24T09:08:03.132Z,91
2018-12-24T09:09:03.129Z,91
2018-12-24T09:10:04.256Z,91
2018-12-24T09:11:03.456Z,91
2018-12-24T09:12:05.551Z,91
2018-12-24T09:13:02.698Z,91
2018-12-24T09:14:02.976Z,91
2018-12-24T09:15:03.401Z,91
2018-12-24T09:16:02.948Z,91
2018-12-24T09:17:03.697Z,91
2018-12-24T09:18:03.602Z,91
2018-12-24T09:19:03.562Z,91
2018-12-24T09:20:04.402Z,91
2018-12-24T09:21:03.252Z,91
2018-12-24T09:22:04.252Z,91
2018-12-24T09:23:02.866Z,91
2018-12-24T09:24:03.321Z,91
2018-12-24T09:25:03.830Z,91
2018-12-24T09:26:03.249Z,91
2018-12-24T09:27:03.549Z,91
2018-12-24T09:28:03.273Z,91
2018-12-24T09:29:03.787Z,91
2018-12-24T09:30:03.598Z,91
2018-12-24T09:31:03.073Z,91
2018-12-24T09:32:03.552Z,91
2018-12-24T09:33:03.569Z,91
2018-12-24T09:34:03.042Z,91
2018-12-24T09:35:03.563Z,91
2018-12-24T09:36:03.657Z,91
2018-12-24T09:37:03.078Z,91
2018-12-24T09:38:03.773Z,91
2018-12-24T09:39:03.461Z,91
2018-12-24T09:40:03.335Z,91
2018-12-24T09:41:03.870Z,91
2018-12-24T09:42:03.486Z,91
2018-12-24T09:43:03.040Z,91
2018-12-24T09:44:03.676Z,91
2018-12-24T09:45:03.281Z,91
2018-12-24T09:46:03.782Z,91
2018-12-24T09:47:03.712Z,91
2018-12-24T09:48:04.211Z,91
2018-12-24T09:49:03.333Z,91
2018-12-24T09:50:03.893Z,91
2018-12-24T09:51:03.696Z,91
2018-12-24T09:52:03.462Z,91
2018-12-24T09:53:03.013Z,91
2018-12-24T09:54:03.187Z,91
2018-12-24T09:55:03.362Z,91
2018-12-24T09:56:03.679Z,91
2018-12-24T09:57:02.885Z,90
2018-12-24T09:58:03.255Z,91
2018-12-24T09:59:02.847Z,91
2018-12-24T10:00:02.918Z,91
2018-12-24T10:01:03.315Z,91
2018-12-24T10:02:03.357Z,90
2018-12-24T10:03:03.341Z,90
2018-12-24T10:04:03.508Z,91
2018-12-24T10:05:03.489Z,90
2018-12-24T10:06:03.194Z,91
2018-12-24T10:07:03.159Z,90
2018-12-24T10:08:02.978Z,91
2018-12-24T10:09:03.173Z,90
2018-12-24T10:10:03.344Z,91
2018-12-24T10:11:03.349Z,90
2018-12-24T10:12:04.066Z,90
2018-12-24T10:13:03.537Z,90
2018-12-24T10:14:02.780Z,90
2018-12-24T10:15:08.430Z,90
2018-12-24T10:16:03.289Z,90
2018-12-24T10:17:03.153Z,90
2018-12-24T10:18:03.568Z,90
2018-12-24T10:19:02.984Z,90
2018-12-24T10:20:03.428Z,90
2018-12-24T10:21:03.571Z,90
2018-12-24T10:22:03.547Z,90
2018-12-24T10:23:03.340Z,90
2018-12-24T10:24:03.740Z,90
2018-12-24T10:25:03.322Z,90
2018-12-24T10:26:03.644Z,90
2018-12-24T10:27:03.514Z,90
2018-12-24T10:28:03.752Z,90
2018-12-24T10:29:03.236Z,90
2018-12-24T10:30:03.802Z,90
2018-12-24T10:31:03.043Z,90
2018-12-24T10:32:03.929Z,90
2018-12-24T10:33:02.976Z,90
2018-12-24T10:34:03.849Z,90
2018-12-24T10:35:03.993Z,90
2018-12-24T10:36:03.004Z,90
2018-12-24T10:37:03.764Z,90
2018-12-24T10:38:03.030Z,90
2018-12-24T10:39:03.490Z,90
2018-12-24T10:40:03.804Z,90
2018-12-24T10:41:03.425Z,90
2018-12-24T10:42:02.840Z,90
2018-12-24T10:43:03.598Z,90
2018-12-24T10:44:03.558Z,90
2018-12-24T10:45:03.938Z,90
2018-12-24T10:46:03.538Z,90
2018-12-24T10:47:02.778Z,90
2018-12-24T10:48:02.789Z,90
2018-12-24T10:49:03.310Z,90
2018-12-24T10:50:03.836Z,90
2018-12-24T10:51:03.441Z,90
2018-12-24T10:52:03.533Z,90
2018-12-24T10:53:02.938Z,90
2018-12-24T10:54:03.563Z,90
2018-12-24T10:55:03.451Z,90
2018-12-24T10:56:03.349Z,90
2018-12-24T10:57:03.223Z,90
2018-12-24T10:58:03.410Z,90
2018-12-24T10:59:02.948Z,90
2018-12-24T11:00:03.245Z,90
2018-12-24T11:01:03.646Z,90
2018-12-24T11:02:03.583Z,90
2018-12-24T11:03:03.841Z,90
2018-12-24T11:04:03.763Z,90
2018-12-24T11:05:03.303Z,90
2018-12-24T11:06:03.127Z,90
2018-12-24T11:07:03.059Z,91
2018-12-24T11:08:03.454Z,91
2018-12-24T11:09:03.446Z,90
2018-12-24T11:10:03.339Z,90
2018-12-24T11:11:03.022Z,90
2018-12-24T11:12:03.101Z,91
2018-12-24T11:13:03.360Z,91
2018-12-24T11:14:03.394Z,90
2018-12-24T11:15:03.809Z,90
2018-12-24T11:16:03.526Z,90
2018-12-24T11:17:03.376Z,90
2018-12-24T11:18:03.540Z,90
2018-12-24T11:19:03.258Z,90
2018-12-24T11:20:03.822Z,90
2018-12-24T11:21:03.083Z,90
2018-12-24T11:22:03.487Z,90
2018-12-24T11:23:03.066Z,90
2018-12-24T11:24:02.988Z,90
2018-12-24T11:25:03.074Z,90
2018-12-24T11:26:03.785Z,90
2018-12-24T11:27:03.528Z,90
2018-12-24T11:28:03.529Z,90
2018-12-24T11:29:03.352Z,90
2018-12-24T11:30:03.183Z,90
2018-12-24T11:31:03.616Z,90
2018-12-24T11:32:03.655Z,90
2018-12-24T11:33:03.269Z,90
2018-12-24T11:34:03.440Z,90
2018-12-24T11:35:03.319Z,90
2018-12-24T11:36:03.187Z,90
2018-12-24T11:37:02.913Z,90
2018-12-24T11:38:03.488Z,90
2018-12-24T11:39:03.862Z,90
2018-12-24T11:40:03.645Z,89
2018-12-24T11:41:03.674Z,89
2018-12-24T11:42:03.110Z,89
2018-12-24T11:43:02.965Z,89
2018-12-24T11:44:03.026Z,90
2018-12-24T11:45:03.732Z,89
2018-12-24T11:46:03.691Z,89
2018-12-24T11:47:03.502Z,89
2018-12-24T11:48:03.122Z,89
2018-12-24T11:49:02.910Z,89
2018-12-24T11:50:03.845Z,89
2018-12-24T11:51:03.264Z,89
2018-12-24T11:52:03.667Z,89
2018-12-24T11:53:03.187Z,89
2018-12-24T11:54:02.723Z,89
2018-12-24T11:55:03.869Z,89
2018-12-24T11:56:03.128Z,89
2018-12-24T11:57:03.632Z,89
2018-12-24T11:58:03.371Z,90
2018-12-24T11:59:03.753Z,90
2018-12-24T12:00:03.474Z,90
2018-12-24T12:01:03.015Z,90
2018-12-24T12:02:10.459Z,90
2018-12-24T12:03:03.896Z,90
2018-12-24T12:04:02.972Z,90
2018-12-24T12:05:03.559Z,90
2018-12-24T12:06:03.533Z,90
2018-12-24T12:07:03.616Z,90
2018-12-24T12:08:03.461Z,90
2018-12-24T12:09:03.140Z,90
2018-12-24T12:10:03.571Z,89
2018-12-24T12:11:03.607Z,89
2018-12-24T12:12:03.152Z,89
2018-12-24T12:13:03.216Z,89
2018-12-24T12:14:03.527Z,89
2018-12-24T12:15:03.666Z,89
2018-12-24T12:16:03.222Z,89
2018-12-24T12:17:03.543Z,89
2018-12-24T12:18:03.766Z,89
2018-12-24T12:19:03.483Z,89
2018-12-24T12:20:03.712Z,89
2018-12-24T12:21:03.658Z,89
2018-12-24T12:22:02.951Z,89
2018-12-24T12:23:03.105Z,89
2018-12-24T12:24:03.713Z,90
2018-12-24T12:25:03.697Z,90
2018-12-24T12:26:03.822Z,90
2018-12-24T12:27:03.225Z,90
2018-12-24T12:28:03.529Z,90
2018-12-24T12:29:02.953Z,90
2018-12-24T12:30:03.603Z,90
2018-12-24T12:31:03.175Z,90
2018-12-24T12:32:03.671Z,90
2018-12-24T12:33:02.840Z,90
2018-12-24T12:34:03.639Z,90
2018-12-24T12:35:03.064Z,90
2018-12-24T12:36:03.278Z,89
2018-12-24T12:37:03.590Z,89
2018-12-24T12:38:03.000Z,89
2018-12-24T12:39:03.661Z,89
2018-12-24T12:40:03.034Z,89
2018-12-24T12:41:03.737Z,89
2018-12-24T12:42:03.634Z,89
2018-12-24T12:43:03.652Z,89
2018-12-24T12:44:03.469Z,89
2018-12-24T12:45:03.030Z,89
2018-12-24T12:46:04.013Z,89
2018-12-24T12:47:03.549Z,89
2018-12-24T12:48:03.575Z,89
2018-12-24T12:49:03.253Z,89
2018-12-24T12:50:03.791Z,89
2018-12-24T12:51:03.089Z,89
2018-12-24T12:52:03.738Z,89
2018-12-24T12:53:03.652Z,89
2018-12-24T12:54:03.022Z,89
2018-12-24T12:55:03.778Z,89
2018-12-24T12:56:04.158Z,89
2018-12-24T12:57:03.825Z,89
2018-12-24T12:58:03.488Z,89
2018-12-24T12:59:03.335Z,89
2018-12-24T13:00:03.460Z,89
2018-12-24T13:01:03.056Z,89
2018-12-24T13:02:03.295Z,88
2018-12-24T13:03:04.333Z,88
2018-12-24T13:04:03.854Z,88
2018-12-24T13:05:03.169Z,88
2018-12-24T13:06:03.828Z,88
2018-12-24T13:07:03.956Z,88
2018-12-24T13:08:03.035Z,88
2018-12-24T13:09:03.224Z,88
2018-12-24T13:10:04.805Z,88
2018-12-24T13:11:03.095Z,88
2018-12-24T13:12:03.516Z,88
2018-12-24T13:13:02.858Z,88
2018-12-24T13:14:03.032Z,88
2018-12-24T13:15:02.841Z,88
2018-12-24T13:16:03.075Z,88
2018-12-24T13:17:03.728Z,88
2018-12-24T13:18:03.256Z,88
2018-12-24T13:19:03.682Z,88
2018-12-24T13:20:03.552Z,88
2018-12-24T13:21:03.471Z,87
2018-12-24T13:22:04.786Z,87
2018-12-24T13:23:02.975Z,87
2018-12-24T13:24:03.668Z,87
2018-12-24T13:25:03.451Z,87
2018-12-24T13:26:03.069Z,87
2018-12-24T13:27:03.112Z,87
2018-12-24T13:28:05.498Z,87
2018-12-24T13:29:03.508Z,87
2018-12-24T13:31:47.626Z,87
2018-12-24T13:32:03.613Z,87
2018-12-24T13:33:02.951Z,87
2018-12-24T13:34:03.236Z,87
2018-12-24T13:35:03.311Z,87
2018-12-24T13:36:03.109Z,87
2018-12-24T13:37:03.913Z,87
2018-12-24T13:38:02.974Z,87
2018-12-24T13:39:03.351Z,87
2018-12-24T13:40:03.186Z,87
2018-12-24T13:41:03.439Z,87
2018-12-24T13:42:03.566Z,87
2018-12-24T13:43:03.498Z,87
2018-12-24T13:44:03.542Z,87
2018-12-24T13:45:03.726Z,87
2018-12-24T13:46:08.573Z,87
2018-12-24T13:47:02.953Z,87
2018-12-24T13:48:03.761Z,87
2018-12-24T13:49:03.649Z,87
2018-12-24T13:50:03.659Z,87
2018-12-24T13:52:50.826Z,87
2018-12-24T13:52:50.830Z,87
2018-12-24T13:53:02.780Z,87
2018-12-24T13:54:03.728Z,87
2018-12-24T13:55:03.379Z,87
2018-12-24T13:56:03.068Z,87
2018-12-24T13:57:03.213Z,87
2018-12-24T13:58:03.307Z,87
2018-12-24T13:59:03.797Z,87
2018-12-24T14:00:03.918Z,87
2018-12-24T14:01:02.850Z,87
2018-12-24T14:02:03.354Z,87
2018-12-24T14:03:03.283Z,87
2018-12-24T14:04:03.559Z,87
2018-12-24T14:05:03.555Z,87
2018-12-24T14:06:03.178Z,87
2018-12-24T14:07:03.326Z,87
2018-12-24T14:08:03.906Z,87
2018-12-24T14:09:03.771Z,87
2018-12-24T14:10:03.003Z,87
2018-12-24T14:11:03.294Z,87
2018-12-24T14:12:03.505Z,87
2018-12-24T14:13:03.896Z,87
2018-12-24T14:14:02.977Z,87
2018-12-24T14:15:03.644Z,87
2018-12-24T14:16:03.050Z,87